sensor_id;sensor_type;location;lat;lon;timestamp;P1;durP1;ratioP1;P2;durP2;ratioP2
67049;SDS011;53955;52.442;13.284;2022-09-23T00:01:45;11.93;;;6.67;;
67049;SDS011;53955;52.442;13.284;2022-09-23T00:04:12;13.17;;;7.10;;
67049;SDS011;53955;52.442;13.284;2022-09-23T00:06:38;12.23;;;7.83;;
67049;SDS011;53955;52.442;13.284;2022-09-23T00:09:05;12.10;;;7.77;;
67049;SDS011;53955;52.442;13.284;2022-09-23T00:11:32;12.93;;;7.60;;
67049;SDS011;53955;52.442;13.284;2022-09-23T00:13:59;11.70;;;7.03;;
67049;SDS011;53955;52.442;13.284;2022-09-23T00:16:26;12.93;;;7.83;;
67049;SDS011;53955;52.442;13.284;2022-09-23T00:18:55;11.27;;;7.23;;
67049;SDS011;53955;52.442;13.284;2022-09-23T00:21:22;8.87;;;6.23;;
67049;SDS011;53955;52.442;13.284;2022-09-23T00:23:49;11.63;;;7.27;;
67049;SDS011;53955;52.442;13.284;2022-09-23T00:26:16;10.87;;;7.47;;
67049;SDS011;53955;52.442;13.284;2022-09-23T00:28:44;14.40;;;7.77;;
67049;SDS011;53955;52.442;13.284;2022-09-23T00:31:12;11.17;;;6.90;;
67049;SDS011;53955;52.442;13.284;2022-09-23T00:33:41;10.93;;;7.60;;
67049;SDS011;53955;52.442;13.284;2022-09-23T00:36:09;10.63;;;6.80;;
67049;SDS011;53955;52.442;13.284;2022-09-23T00:38:39;11.67;;;7.30;;
67049;SDS011;53955;52.442;13.284;2022-09-23T00:41:06;10.50;;;6.90;;
67049;SDS011;53955;52.442;13.284;2022-09-23T00:43:36;12.17;;;7.40;;
67049;SDS011;53955;52.442;13.284;2022-09-23T00:46:05;13.13;;;7.37;;
67049;SDS011;53955;52.442;13.284;2022-09-23T00:48:33;11.70;;;6.97;;
67049;SDS011;53955;52.442;13.284;2022-09-23T00:51:01;11.43;;;7.43;;
67049;SDS011;53955;52.442;13.284;2022-09-23T00:53:30;11.97;;;6.43;;
67049;SDS011;53955;52.442;13.284;2022-09-23T00:55:59;14.47;;;7.93;;
67049;SDS011;53955;52.442;13.284;2022-09-23T00:58:31;11.43;;;6.80;;
67049;SDS011;53955;52.442;13.284;2022-09-23T01:01:01;12.40;;;7.63;;
67049;SDS011;53955;52.442;13.284;2022-09-23T01:03:28;11.63;;;6.83;;
67049;SDS011;53955;52.442;13.284;2022-09-23T01:05:56;10.97;;;7.17;;
67049;SDS011;53955;52.442;13.284;2022-09-23T01:08:23;12.70;;;7.30;;
67049;SDS011;53955;52.442;13.284;2022-09-23T01:10:55;10.80;;;7.03;;
67049;SDS011;53955;52.442;13.284;2022-09-23T01:13:30;10.57;;;6.73;;
67049;SDS011;53955;52.442;13.284;2022-09-23T01:16:02;11.97;;;6.70;;
67049;SDS011;53955;52.442;13.284;2022-09-23T01:18:36;10.83;;;6.83;;
67049;SDS011;53955;52.442;13.284;2022-09-23T01:21:14;11.47;;;7.00;;
67049;SDS011;53955;52.442;13.284;2022-09-23T01:23:57;11.60;;;7.10;;
67049;SDS011;53955;52.442;13.284;2022-09-23T01:26:57;10.80;;;6.70;;
67049;SDS011;53955;52.442;13.284;2022-09-23T01:29:51;10.77;;;6.40;;
67049;SDS011;53955;52.442;13.284;2022-09-23T01:32:49;10.80;;;6.93;;
67049;SDS011;53955;52.442;13.284;2022-09-23T01:35:24;12.83;;;6.67;;
67049;SDS011;53955;52.442;13.284;2022-09-23T01:37:55;9.87;;;6.30;;
67049;SDS011;53955;52.442;13.284;2022-09-23T01:40:29;14.03;;;7.50;;
67049;SDS011;53955;52.442;13.284;2022-09-23T01:43:05;11.67;;;6.70;;
67049;SDS011;53955;52.442;13.284;2022-09-23T01:45:35;11.47;;;7.00;;
67049;SDS011;53955;52.442;13.284;2022-09-23T01:48:10;11.63;;;7.07;;
67049;SDS011;53955;52.442;13.284;2022-09-23T01:50:45;9.43;;;6.37;;
67049;SDS011;53955;52.442;13.284;2022-09-23T01:53:30;10.37;;;6.53;;
67049;SDS011;53955;52.442;13.284;2022-09-23T01:56:04;10.53;;;7.00;;
67049;SDS011;53955;52.442;13.284;2022-09-23T01:58:37;11.43;;;6.30;;
67049;SDS011;53955;52.442;13.284;2022-09-23T02:01:07;14.27;;;6.67;;
67049;SDS011;53955;52.442;13.284;2022-09-23T02:03:42;12.97;;;7.07;;
67049;SDS011;53955;52.442;13.284;2022-09-23T02:06:13;11.40;;;7.27;;
67049;SDS011;53955;52.442;13.284;2022-09-23T02:08:44;12.47;;;7.03;;
67049;SDS011;53955;52.442;13.284;2022-09-23T02:11:16;9.80;;;6.83;;
67049;SDS011;53955;52.442;13.284;2022-09-23T02:13:44;10.03;;;7.03;;
67049;SDS011;53955;52.442;13.284;2022-09-23T02:16:17;10.70;;;7.20;;
67049;SDS011;53955;52.442;13.284;2022-09-23T02:18:52;10.67;;;6.80;;
67049;SDS011;53955;52.442;13.284;2022-09-23T02:21:23;9.87;;;7.00;;
67049;SDS011;53955;52.442;13.284;2022-09-23T02:23:57;10.03;;;6.43;;
67049;SDS011;53955;52.442;13.284;2022-09-23T02:26:29;11.30;;;7.13;;
67049;SDS011;53955;52.442;13.284;2022-09-23T02:29:03;12.20;;;6.90;;
67049;SDS011;53955;52.442;13.284;2022-09-23T02:31:37;10.20;;;6.73;;
67049;SDS011;53955;52.442;13.284;2022-09-23T02:34:12;9.73;;;7.07;;
67049;SDS011;53955;52.442;13.284;2022-09-23T02:36:44;11.60;;;6.67;;
67049;SDS011;53955;52.442;13.284;2022-09-23T02:39:18;9.97;;;6.67;;
67049;SDS011;53955;52.442;13.284;2022-09-23T02:41:50;11.20;;;6.90;;
67049;SDS011;53955;52.442;13.284;2022-09-23T02:44:23;11.23;;;7.00;;
67049;SDS011;53955;52.442;13.284;2022-09-23T02:46:50;10.00;;;6.60;;
67049;SDS011;53955;52.442;13.284;2022-09-23T02:49:19;11.50;;;7.30;;
67049;SDS011;53955;52.442;13.284;2022-09-23T02:51:48;9.80;;;6.80;;
67049;SDS011;53955;52.442;13.284;2022-09-23T02:54:15;12.63;;;6.90;;
67049;SDS011;53955;52.442;13.284;2022-09-23T02:56:44;9.10;;;6.50;;
67049;SDS011;53955;52.442;13.284;2022-09-23T02:59:12;15.20;;;7.30;;
67049;SDS011;53955;52.442;13.284;2022-09-23T03:01:43;10.73;;;6.37;;
67049;SDS011;53955;52.442;13.284;2022-09-23T03:04:29;11.97;;;7.47;;
67049;SDS011;53955;52.442;13.284;2022-09-23T03:07:08;8.67;;;6.33;;
67049;SDS011;53955;52.442;13.284;2022-09-23T03:09:44;10.07;;;6.23;;
67049;SDS011;53955;52.442;13.284;2022-09-23T03:12:18;8.20;;;6.03;;
67049;SDS011;53955;52.442;13.284;2022-09-23T03:15:01;10.20;;;6.67;;
67049;SDS011;53955;52.442;13.284;2022-09-23T03:17:38;8.67;;;6.17;;
67049;SDS011;53955;52.442;13.284;2022-09-23T03:20:13;8.80;;;6.23;;
67049;SDS011;53955;52.442;13.284;2022-09-23T03:22:48;9.23;;;5.97;;
67049;SDS011;53955;52.442;13.284;2022-09-23T03:25:20;10.07;;;5.77;;
67049;SDS011;53955;52.442;13.284;2022-09-23T03:27:49;9.77;;;6.53;;
67049;SDS011;53955;52.442;13.284;2022-09-23T03:30:20;9.43;;;6.90;;
67049;SDS011;53955;52.442;13.284;2022-09-23T03:32:46;9.40;;;5.80;;
67049;SDS011;53955;52.442;13.284;2022-09-23T03:35:16;9.43;;;6.67;;
67049;SDS011;53955;52.442;13.284;2022-09-23T03:37:44;8.23;;;6.33;;
67049;SDS011;53955;52.442;13.284;2022-09-23T03:40:16;7.83;;;6.10;;
67049;SDS011;53955;52.442;13.284;2022-09-23T03:42:48;10.57;;;6.13;;
67049;SDS011;53955;52.442;13.284;2022-09-23T03:45:16;9.73;;;6.43;;
67049;SDS011;53955;52.442;13.284;2022-09-23T03:47:46;10.80;;;6.23;;
67049;SDS011;53955;52.442;13.284;2022-09-23T03:50:13;11.43;;;7.00;;
67049;SDS011;53955;52.442;13.284;2022-09-23T03:52:42;9.27;;;5.70;;
67049;SDS011;53955;52.442;13.284;2022-09-23T03:55:10;9.50;;;6.13;;
67049;SDS011;53955;52.442;13.284;2022-09-23T03:57:37;10.93;;;6.27;;
67049;SDS011;53955;52.442;13.284;2022-09-23T04:00:04;7.23;;;5.90;;
67049;SDS011;53955;52.442;13.284;2022-09-23T04:02:31;11.07;;;6.27;;
67049;SDS011;53955;52.442;13.284;2022-09-23T04:04:58;9.43;;;6.10;;
67049;SDS011;53955;52.442;13.284;2022-09-23T04:07:25;10.47;;;6.70;;
67049;SDS011;53955;52.442;13.284;2022-09-23T04:09:53;10.40;;;6.60;;
67049;SDS011;53955;52.442;13.284;2022-09-23T04:12:19;9.17;;;6.10;;
67049;SDS011;53955;52.442;13.284;2022-09-23T04:14:46;10.27;;;5.87;;
67049;SDS011;53955;52.442;13.284;2022-09-23T04:17:13;7.63;;;5.27;;
67049;SDS011;53955;52.442;13.284;2022-09-23T04:19:39;10.03;;;6.23;;
67049;SDS011;53955;52.442;13.284;2022-09-23T04:22:06;8.83;;;5.37;;
67049;SDS011;53955;52.442;13.284;2022-09-23T04:24:33;10.10;;;6.40;;
67049;SDS011;53955;52.442;13.284;2022-09-23T04:27:01;10.67;;;5.80;;
67049;SDS011;53955;52.442;13.284;2022-09-23T04:29:28;8.90;;;6.00;;
67049;SDS011;53955;52.442;13.284;2022-09-23T04:31:54;9.17;;;5.83;;
67049;SDS011;53955;52.442;13.284;2022-09-23T04:34:21;8.40;;;5.27;;
67049;SDS011;53955;52.442;13.284;2022-09-23T04:36:48;9.03;;;6.17;;
67049;SDS011;53955;52.442;13.284;2022-09-23T04:39:15;10.63;;;6.30;;
67049;SDS011;53955;52.442;13.284;2022-09-23T04:41:42;9.87;;;5.70;;
67049;SDS011;53955;52.442;13.284;2022-09-23T04:44:11;11.03;;;6.17;;
67049;SDS011;53955;52.442;13.284;2022-09-23T04:46:39;7.60;;;5.27;;
67049;SDS011;53955;52.442;13.284;2022-09-23T04:49:06;11.03;;;5.20;;
67049;SDS011;53955;52.442;13.284;2022-09-23T04:51:33;7.87;;;5.33;;
67049;SDS011;53955;52.442;13.284;2022-09-23T04:54:00;7.03;;;4.80;;
67049;SDS011;53955;52.442;13.284;2022-09-23T04:56:28;8.83;;;5.77;;
67049;SDS011;53955;52.442;13.284;2022-09-23T04:58:57;10.67;;;6.00;;
67049;SDS011;53955;52.442;13.284;2022-09-23T05:01:27;8.13;;;6.13;;
67049;SDS011;53955;52.442;13.284;2022-09-23T05:03:55;6.80;;;5.60;;
67049;SDS011;53955;52.442;13.284;2022-09-23T05:06:26;8.90;;;5.90;;
67049;SDS011;53955;52.442;13.284;2022-09-23T05:08:55;8.33;;;5.87;;
67049;SDS011;53955;52.442;13.284;2022-09-23T05:11:23;9.67;;;5.97;;
67049;SDS011;53955;52.442;13.284;2022-09-23T05:13:51;10.17;;;5.80;;
67049;SDS011;53955;52.442;13.284;2022-09-23T05:16:19;8.63;;;6.10;;
67049;SDS011;53955;52.442;13.284;2022-09-23T05:18:49;12.40;;;5.80;;
67049;SDS011;53955;52.442;13.284;2022-09-23T05:21:17;9.93;;;6.13;;
67049;SDS011;53955;52.442;13.284;2022-09-23T05:23:46;12.20;;;6.50;;
67049;SDS011;53955;52.442;13.284;2022-09-23T05:26:13;9.27;;;6.23;;
67049;SDS011;53955;52.442;13.284;2022-09-23T05:28:40;8.83;;;6.00;;
67049;SDS011;53955;52.442;13.284;2022-09-23T05:31:07;8.20;;;6.37;;
67049;SDS011;53955;52.442;13.284;2022-09-23T05:33:36;10.00;;;6.17;;
67049;SDS011;53955;52.442;13.284;2022-09-23T05:36:04;9.97;;;5.83;;
67049;SDS011;53955;52.442;13.284;2022-09-23T05:38:32;12.00;;;7.03;;
67049;SDS011;53955;52.442;13.284;2022-09-23T05:40:59;12.20;;;7.13;;
67049;SDS011;53955;52.442;13.284;2022-09-23T05:43:27;12.63;;;6.60;;
67049;SDS011;53955;52.442;13.284;2022-09-23T05:46:00;12.93;;;6.93;;
67049;SDS011;53955;52.442;13.284;2022-09-23T05:48:28;9.50;;;6.20;;
67049;SDS011;53955;52.442;13.284;2022-09-23T05:50:55;10.37;;;6.07;;
67049;SDS011;53955;52.442;13.284;2022-09-23T05:53:23;9.60;;;6.17;;
67049;SDS011;53955;52.442;13.284;2022-09-23T05:55:49;8.43;;;5.20;;
67049;SDS011;53955;52.442;13.284;2022-09-23T05:58:18;8.20;;;5.50;;
67049;SDS011;53955;52.442;13.284;2022-09-23T06:00:44;8.23;;;4.85;;
67049;SDS011;53955;52.442;13.284;2022-09-23T06:03:13;9.00;;;5.00;;
67049;SDS011;53955;52.442;13.284;2022-09-23T06:05:41;7.00;;;4.95;;
67049;SDS011;53955;52.442;13.284;2022-09-23T06:08:08;9.00;;;4.90;;
67049;SDS011;53955;52.442;13.284;2022-09-23T06:10:36;8.85;;;4.90;;
67049;SDS011;53955;52.442;13.284;2022-09-23T06:13:03;7.38;;;4.72;;
67049;SDS011;53955;52.442;13.284;2022-09-23T06:15:30;9.98;;;5.00;;
67049;SDS011;53955;52.442;13.284;2022-09-23T06:17:57;11.68;;;5.03;;
67049;SDS011;53955;52.442;13.284;2022-09-23T06:20:24;8.27;;;4.65;;
67049;SDS011;53955;52.442;13.284;2022-09-23T06:22:50;7.82;;;4.22;;
67049;SDS011;53955;52.442;13.284;2022-09-23T06:25:17;5.95;;;4.03;;
67049;SDS011;53955;52.442;13.284;2022-09-23T06:27:52;5.90;;;4.05;;
67049;SDS011;53955;52.442;13.284;2022-09-23T06:30:19;7.75;;;4.47;;
67049;SDS011;53955;52.442;13.284;2022-09-23T06:32:46;6.90;;;4.03;;
67049;SDS011;53955;52.442;13.284;2022-09-23T06:35:15;6.05;;;4.35;;
67049;SDS011;53955;52.442;13.284;2022-09-23T06:37:42;7.10;;;4.40;;
67049;SDS011;53955;52.442;13.284;2022-09-23T06:40:09;6.57;;;4.22;;
67049;SDS011;53955;52.442;13.284;2022-09-23T06:42:35;5.88;;;3.97;;
67049;SDS011;53955;52.442;13.284;2022-09-23T06:45:04;6.03;;;3.80;;
67049;SDS011;53955;52.442;13.284;2022-09-23T06:47:30;6.60;;;3.60;;
67049;SDS011;53955;52.442;13.284;2022-09-23T06:49:57;8.88;;;3.35;;
67049;SDS011;53955;52.442;13.284;2022-09-23T06:52:24;5.07;;;3.35;;
67049;SDS011;53955;52.442;13.284;2022-09-23T06:54:50;6.07;;;3.22;;
67049;SDS011;53955;52.442;13.284;2022-09-23T06:57:17;5.15;;;3.42;;
67049;SDS011;53955;52.442;13.284;2022-09-23T06:59:43;7.88;;;3.45;;
67049;SDS011;53955;52.442;13.284;2022-09-23T07:02:11;4.18;;;2.92;;
67049;SDS011;53955;52.442;13.284;2022-09-23T07:04:38;8.60;;;2.92;;
67049;SDS011;53955;52.442;13.284;2022-09-23T07:07:04;5.95;;;3.08;;
67049;SDS011;53955;52.442;13.284;2022-09-23T07:09:31;4.57;;;2.85;;
67049;SDS011;53955;52.442;13.284;2022-09-23T07:11:57;5.70;;;3.42;;
67049;SDS011;53955;52.442;13.284;2022-09-23T07:14:24;4.60;;;2.75;;
67049;SDS011;53955;52.442;13.284;2022-09-23T07:16:50;4.30;;;2.63;;
67049;SDS011;53955;52.442;13.284;2022-09-23T07:19:19;4.55;;;2.80;;
67049;SDS011;53955;52.442;13.284;2022-09-23T07:21:45;4.15;;;2.47;;
67049;SDS011;53955;52.442;13.284;2022-09-23T07:24:12;6.97;;;2.63;;
67049;SDS011;53955;52.442;13.284;2022-09-23T07:26:38;3.53;;;2.28;;
67049;SDS011;53955;52.442;13.284;2022-09-23T07:29:05;4.43;;;2.40;;
67049;SDS011;53955;52.442;13.284;2022-09-23T07:31:32;4.15;;;2.58;;
67049;SDS011;53955;52.442;13.284;2022-09-23T07:34:00;5.07;;;2.88;;
67049;SDS011;53955;52.442;13.284;2022-09-23T07:36:28;5.95;;;2.55;;
67049;SDS011;53955;52.442;13.284;2022-09-23T07:38:56;4.53;;;2.85;;
67049;SDS011;53955;52.442;13.284;2022-09-23T07:41:27;6.70;;;2.67;;
67049;SDS011;53955;52.442;13.284;2022-09-23T07:43:55;3.78;;;2.60;;
67049;SDS011;53955;52.442;13.284;2022-09-23T07:46:25;4.00;;;2.60;;
67049;SDS011;53955;52.442;13.284;2022-09-23T07:48:53;4.85;;;3.03;;
67049;SDS011;53955;52.442;13.284;2022-09-23T07:51:21;4.05;;;2.83;;
67049;SDS011;53955;52.442;13.284;2022-09-23T07:53:50;4.60;;;2.63;;
67049;SDS011;53955;52.442;13.284;2022-09-23T07:56:19;4.85;;;2.75;;
67049;SDS011;53955;52.442;13.284;2022-09-23T07:58:46;4.53;;;2.90;;
67049;SDS011;53955;52.442;13.284;2022-09-23T08:01:24;4.88;;;2.50;;
67049;SDS011;53955;52.442;13.284;2022-09-23T08:03:51;3.97;;;2.70;;
67049;SDS011;53955;52.442;13.284;2022-09-23T08:06:18;3.33;;;2.58;;
67049;SDS011;53955;52.442;13.284;2022-09-23T08:08:44;4.80;;;2.85;;
67049;SDS011;53955;52.442;13.284;2022-09-23T08:11:12;4.20;;;2.63;;
67049;SDS011;53955;52.442;13.284;2022-09-23T08:13:39;6.45;;;3.15;;
67049;SDS011;53955;52.442;13.284;2022-09-23T08:16:06;3.60;;;2.60;;
67049;SDS011;53955;52.442;13.284;2022-09-23T08:18:33;4.95;;;2.88;;
67049;SDS011;53955;52.442;13.284;2022-09-23T08:20:59;4.32;;;2.78;;
67049;SDS011;53955;52.442;13.284;2022-09-23T08:23:26;4.10;;;2.95;;
67049;SDS011;53955;52.442;13.284;2022-09-23T08:25:59;3.15;;;2.45;;
67049;SDS011;53955;52.442;13.284;2022-09-23T08:28:28;4.90;;;2.80;;
67049;SDS011;53955;52.442;13.284;2022-09-23T08:30:57;4.50;;;2.97;;
67049;SDS011;53955;52.442;13.284;2022-09-23T08:33:25;3.28;;;2.45;;
67049;SDS011;53955;52.442;13.284;2022-09-23T08:35:51;4.05;;;2.17;;
67049;SDS011;53955;52.442;13.284;2022-09-23T08:38:23;4.32;;;2.92;;
67049;SDS011;53955;52.442;13.284;2022-09-23T08:40:49;4.60;;;2.67;;
67049;SDS011;53955;52.442;13.284;2022-09-23T08:43:22;4.57;;;3.20;;
67049;SDS011;53955;52.442;13.284;2022-09-23T08:45:53;4.75;;;2.85;;
67049;SDS011;53955;52.442;13.284;2022-09-23T08:48:24;4.35;;;2.80;;
67049;SDS011;53955;52.442;13.284;2022-09-23T08:50:55;3.90;;;2.85;;
67049;SDS011;53955;52.442;13.284;2022-09-23T08:53:27;4.03;;;2.45;;
67049;SDS011;53955;52.442;13.284;2022-09-23T08:55:57;5.13;;;3.00;;
67049;SDS011;53955;52.442;13.284;2022-09-23T08:58:31;5.28;;;2.63;;
67049;SDS011;53955;52.442;13.284;2022-09-23T09:01:11;5.88;;;3.00;;
67049;SDS011;53955;52.442;13.284;2022-09-23T09:03:45;4.40;;;3.17;;
67049;SDS011;53955;52.442;13.284;2022-09-23T09:06:16;3.65;;;2.63;;
67049;SDS011;53955;52.442;13.284;2022-09-23T09:08:49;6.78;;;3.70;;
67049;SDS011;53955;52.442;13.284;2022-09-23T09:11:20;3.35;;;2.38;;
67049;SDS011;53955;52.442;13.284;2022-09-23T09:13:55;4.03;;;2.60;;
67049;SDS011;53955;52.442;13.284;2022-09-23T09:16:34;3.85;;;2.45;;
67049;SDS011;53955;52.442;13.284;2022-09-23T09:19:28;3.80;;;2.72;;
67049;SDS011;53955;52.442;13.284;2022-09-23T09:22:06;5.22;;;2.67;;
67049;SDS011;53955;52.442;13.284;2022-09-23T09:24:40;6.15;;;3.05;;
67049;SDS011;53955;52.442;13.284;2022-09-23T09:27:11;3.97;;;2.45;;
67049;SDS011;53955;52.442;13.284;2022-09-23T09:29:39;3.97;;;2.30;;
67049;SDS011;53955;52.442;13.284;2022-09-23T09:32:13;4.68;;;2.70;;
67049;SDS011;53955;52.442;13.284;2022-09-23T09:34:48;4.05;;;2.78;;
67049;SDS011;53955;52.442;13.284;2022-09-23T09:37:19;3.28;;;2.25;;
67049;SDS011;53955;52.442;13.284;2022-09-23T09:39:50;4.38;;;2.65;;
67049;SDS011;53955;52.442;13.284;2022-09-23T09:42:18;3.20;;;2.10;;
67049;SDS011;53955;52.442;13.284;2022-09-23T09:44:49;4.70;;;2.33;;
67049;SDS011;53955;52.442;13.284;2022-09-23T09:47:26;5.28;;;2.25;;
67049;SDS011;53955;52.442;13.284;2022-09-23T09:50:02;3.55;;;2.22;;
67049;SDS011;53955;52.442;13.284;2022-09-23T09:52:31;3.22;;;2.10;;
67049;SDS011;53955;52.442;13.284;2022-09-23T09:55:13;5.32;;;2.53;;
67049;SDS011;53955;52.442;13.284;2022-09-23T09:57:49;5.47;;;2.67;;
67049;SDS011;53955;52.442;13.284;2022-09-23T10:00:36;2.60;;;1.92;;
67049;SDS011;53955;52.442;13.284;2022-09-23T10:03:21;3.35;;;2.20;;
67049;SDS011;53955;52.442;13.284;2022-09-23T10:05:51;3.47;;;1.90;;
67049;SDS011;53955;52.442;13.284;2022-09-23T10:08:20;3.10;;;1.70;;
67049;SDS011;53955;52.442;13.284;2022-09-23T10:10:50;3.95;;;1.88;;
67049;SDS011;53955;52.442;13.284;2022-09-23T10:13:19;3.90;;;2.10;;
67049;SDS011;53955;52.442;13.284;2022-09-23T10:15:48;3.72;;;2.00;;
67049;SDS011;53955;52.442;13.284;2022-09-23T10:18:22;3.08;;;1.65;;
67049;SDS011;53955;52.442;13.284;2022-09-23T10:20:58;2.75;;;1.58;;
67049;SDS011;53955;52.442;13.284;2022-09-23T10:23:27;3.20;;;1.40;;
67049;SDS011;53955;52.442;13.284;2022-09-23T10:25:57;2.70;;;1.77;;
67049;SDS011;53955;52.442;13.284;2022-09-23T10:28:40;2.75;;;1.63;;
67049;SDS011;53955;52.442;13.284;2022-09-23T10:31:12;2.60;;;1.48;;
67049;SDS011;53955;52.442;13.284;2022-09-23T10:33:41;2.08;;;1.38;;
67049;SDS011;53955;52.442;13.284;2022-09-23T10:36:13;2.00;;;1.35;;
67049;SDS011;53955;52.442;13.284;2022-09-23T10:38:40;2.55;;;1.60;;
67049;SDS011;53955;52.442;13.284;2022-09-23T10:41:10;4.15;;;1.20;;
67049;SDS011;53955;52.442;13.284;2022-09-23T10:44:02;2.47;;;1.50;;
67049;SDS011;53955;52.442;13.284;2022-09-23T10:47:00;2.03;;;1.17;;
67049;SDS011;53955;52.442;13.284;2022-09-23T10:49:39;1.85;;;1.17;;
67049;SDS011;53955;52.442;13.284;2022-09-23T10:52:28;1.48;;;1.10;;
67049;SDS011;53955;52.442;13.284;2022-09-23T10:55:07;2.63;;;1.10;;
67049;SDS011;53955;52.442;13.284;2022-09-23T10:57:51;4.30;;;1.90;;
67049;SDS011;53955;52.442;13.284;2022-09-23T11:00:34;14.13;;;5.32;;
67049;SDS011;53955;52.442;13.284;2022-09-23T11:06:02;13.38;;;7.78;;
67049;SDS011;53955;52.442;13.284;2022-09-23T11:08:49;9.27;;;5.47;;
67049;SDS011;53955;52.442;13.284;2022-09-23T11:11:29;10.57;;;6.72;;
67049;SDS011;53955;52.442;13.284;2022-09-23T11:14:14;3.03;;;2.22;;
67049;SDS011;53955;52.442;13.284;2022-09-23T11:20:05;7.47;;;3.63;;
67049;SDS011;53955;52.442;13.284;2022-09-23T11:22:51;4.72;;;2.67;;
67049;SDS011;53955;52.442;13.284;2022-09-23T11:25:33;6.07;;;2.60;;
67049;SDS011;53955;52.442;13.284;2022-09-23T11:28:27;6.35;;;3.90;;
67049;SDS011;53955;52.442;13.284;2022-09-23T11:31:12;5.80;;;3.80;;
67049;SDS011;53955;52.442;13.284;2022-09-23T11:33:51;4.40;;;2.50;;
67049;SDS011;53955;52.442;13.284;2022-09-23T11:36:27;2.72;;;1.45;;
67049;SDS011;53955;52.442;13.284;2022-09-23T11:39:01;5.18;;;2.25;;
67049;SDS011;53955;52.442;13.284;2022-09-23T11:41:33;2.83;;;1.98;;
67049;SDS011;53955;52.442;13.284;2022-09-23T11:44:06;2.75;;;1.60;;
67049;SDS011;53955;52.442;13.284;2022-09-23T11:46:41;2.90;;;1.88;;
67049;SDS011;53955;52.442;13.284;2022-09-23T11:49:14;3.28;;;1.80;;
67049;SDS011;53955;52.442;13.284;2022-09-23T11:51:46;2.28;;;1.45;;
67049;SDS011;53955;52.442;13.284;2022-09-23T11:54:24;3.08;;;1.73;;
67049;SDS011;53955;52.442;13.284;2022-09-23T11:56:57;3.03;;;1.92;;
67049;SDS011;53955;52.442;13.284;2022-09-23T11:59:28;2.10;;;1.55;;
67049;SDS011;53955;52.442;13.284;2022-09-23T12:02:02;2.78;;;1.60;;
67049;SDS011;53955;52.442;13.284;2022-09-23T12:04:37;2.53;;;1.67;;
67049;SDS011;53955;52.442;13.284;2022-09-23T12:07:09;4.63;;;1.58;;
67049;SDS011;53955;52.442;13.284;2022-09-23T12:09:43;2.00;;;1.35;;
67049;SDS011;53955;52.442;13.284;2022-09-23T12:12:20;3.15;;;1.48;;
67049;SDS011;53955;52.442;13.284;2022-09-23T12:14:55;2.10;;;1.65;;
67049;SDS011;53955;52.442;13.284;2022-09-23T12:17:34;3.05;;;1.52;;
67049;SDS011;53955;52.442;13.284;2022-09-23T12:20:15;2.10;;;1.23;;
67049;SDS011;53955;52.442;13.284;2022-09-23T12:22:56;3.80;;;1.60;;
67049;SDS011;53955;52.442;13.284;2022-09-23T12:25:34;2.47;;;1.67;;
67049;SDS011;53955;52.442;13.284;2022-09-23T12:28:10;2.47;;;1.52;;
67049;SDS011;53955;52.442;13.284;2022-09-23T12:30:42;3.55;;;1.65;;
67049;SDS011;53955;52.442;13.284;2022-09-23T12:33:14;2.13;;;1.33;;
67049;SDS011;53955;52.442;13.284;2022-09-23T12:35:46;3.13;;;1.58;;
67049;SDS011;53955;52.442;13.284;2022-09-23T12:38:13;6.07;;;1.95;;
67049;SDS011;53955;52.442;13.284;2022-09-23T12:40:46;2.35;;;1.40;;
67049;SDS011;53955;52.442;13.284;2022-09-23T12:43:17;3.38;;;1.48;;
67049;SDS011;53955;52.442;13.284;2022-09-23T12:45:53;2.17;;;1.30;;
67049;SDS011;53955;52.442;13.284;2022-09-23T12:48:24;1.70;;;1.20;;
67049;SDS011;53955;52.442;13.284;2022-09-23T12:51:12;2.20;;;1.40;;
67049;SDS011;53955;52.442;13.284;2022-09-23T12:53:50;2.90;;;1.50;;
67049;SDS011;53955;52.442;13.284;2022-09-23T12:56:21;2.28;;;1.60;;
67049;SDS011;53955;52.442;13.284;2022-09-23T12:58:57;3.58;;;1.33;;
67049;SDS011;53955;52.442;13.284;2022-09-23T13:01:34;3.58;;;1.50;;
67049;SDS011;53955;52.442;13.284;2022-09-23T13:04:02;2.28;;;1.50;;
67049;SDS011;53955;52.442;13.284;2022-09-23T13:06:55;5.50;;;1.50;;
67049;SDS011;53955;52.442;13.284;2022-09-23T13:09:29;2.20;;;1.40;;
67049;SDS011;53955;52.442;13.284;2022-09-23T13:11:59;3.42;;;1.38;;
67049;SDS011;53955;52.442;13.284;2022-09-23T13:14:28;2.00;;;1.20;;
67049;SDS011;53955;52.442;13.284;2022-09-23T13:16:57;1.85;;;1.35;;
67049;SDS011;53955;52.442;13.284;2022-09-23T13:25:24;1.58;;;1.10;;
67049;SDS011;53955;52.442;13.284;2022-09-23T13:27:54;1.65;;;1.00;;
67049;SDS011;53955;52.442;13.284;2022-09-23T13:30:24;1.55;;;1.05;;
67049;SDS011;53955;52.442;13.284;2022-09-23T13:32:52;1.40;;;1.10;;
67049;SDS011;53955;52.442;13.284;2022-09-23T13:35:29;1.60;;;1.00;;
67049;SDS011;53955;52.442;13.284;2022-09-23T13:37:57;1.73;;;1.05;;
67049;SDS011;53955;52.442;13.284;2022-09-23T13:40:25;1.67;;;1.00;;
67049;SDS011;53955;52.442;13.284;2022-09-23T13:42:56;1.92;;;1.20;;
67049;SDS011;53955;52.442;13.284;2022-09-23T13:45:26;1.42;;;1.10;;
67049;SDS011;53955;52.442;13.284;2022-09-23T13:47:57;3.25;;;1.20;;
67049;SDS011;53955;52.442;13.284;2022-09-23T13:50:27;2.22;;;1.30;;
67049;SDS011;53955;52.442;13.284;2022-09-23T13:52:55;5.20;;;1.52;;
67049;SDS011;53955;52.442;13.284;2022-09-23T13:55:25;2.15;;;1.23;;
67049;SDS011;53955;52.442;13.284;2022-09-23T13:58:01;2.10;;;1.10;;
67049;SDS011;53955;52.442;13.284;2022-09-23T14:00:33;3.03;;;1.20;;
67049;SDS011;53955;52.442;13.284;2022-09-23T14:03:01;1.73;;;1.02;;
67049;SDS011;53955;52.442;13.284;2022-09-23T14:05:31;1.92;;;1.00;;
67049;SDS011;53955;52.442;13.284;2022-09-23T14:08:00;3.20;;;1.40;;
67049;SDS011;53955;52.442;13.284;2022-09-23T14:10:27;1.98;;;1.08;;
67049;SDS011;53955;52.442;13.284;2022-09-23T14:12:55;2.08;;;1.00;;
67049;SDS011;53955;52.442;13.284;2022-09-23T14:15:24;2.95;;;1.10;;
67049;SDS011;53955;52.442;13.284;2022-09-23T14:17:53;1.63;;;1.00;;
67049;SDS011;53955;52.442;13.284;2022-09-23T14:20:25;1.10;;;0.80;;
67049;SDS011;53955;52.442;13.284;2022-09-23T14:25:39;2.38;;;1.00;;
67049;SDS011;53955;52.442;13.284;2022-09-23T14:28:08;4.32;;;1.27;;
67049;SDS011;53955;52.442;13.284;2022-09-23T14:30:40;1.40;;;1.05;;
67049;SDS011;53955;52.442;13.284;2022-09-23T14:33:12;1.92;;;1.10;;
67049;SDS011;53955;52.442;13.284;2022-09-23T14:35:41;2.28;;;1.23;;
67049;SDS011;53955;52.442;13.284;2022-09-23T14:38:11;1.60;;;1.00;;
67049;SDS011;53955;52.442;13.284;2022-09-23T14:41:10;1.73;;;0.75;;
67049;SDS011;53955;52.442;13.284;2022-09-23T14:43:44;1.63;;;0.95;;
67049;SDS011;53955;52.442;13.284;2022-09-23T14:46:22;1.45;;;0.90;;
67049;SDS011;53955;52.442;13.284;2022-09-23T14:48:52;1.58;;;0.85;;
67049;SDS011;53955;52.442;13.284;2022-09-23T14:51:20;4.53;;;1.10;;
67049;SDS011;53955;52.442;13.284;2022-09-23T14:53:54;1.63;;;1.20;;
67049;SDS011;53955;52.442;13.284;2022-09-23T14:56:21;1.13;;;0.95;;
67049;SDS011;53955;52.442;13.284;2022-09-23T14:58:51;2.72;;;0.90;;
67049;SDS011;53955;52.442;13.284;2022-09-23T15:01:32;3.30;;;1.10;;
67049;SDS011;53955;52.442;13.284;2022-09-23T15:04:08;1.67;;;1.25;;
67049;SDS011;53955;52.442;13.284;2022-09-23T15:06:37;2.38;;;1.38;;
67049;SDS011;53955;52.442;13.284;2022-09-23T15:09:07;2.35;;;1.10;;
67049;SDS011;53955;52.442;13.284;2022-09-23T15:11:44;1.63;;;1.25;;